Orbital elements of COSMOS 970 DEB
| Launched | 20 December 1977 |
| Flight ended | – |
| Launch site | Tyuratam Missile and Space Center, Kazakhstan (Also known as Baikonur Cosmodrome) |
| Owner | Commonwealth of Independent States (former USSR) |
| NORAD ID | 12866 |
| Date fetched |
Epoch osculation |
Inc. [°] |
Ecc. | RA asc node [hr] |
Arg Peri. [°] |
Mean anom [°] |
Mean motion [rev/day] |
Abs. mag |
| Date fetched |
Epoch osculation |
Inc. [°] |
Ecc. | RA asc node [hr] |
Arg Peri. [°] |
Mean anom [°] |
Mean motion [rev/day] |
Abs. mag |
| 2026 May 03 17:57 | 2026 Apr 30 08:03:19 | 65.8156 | 0.01005 | 6.6054 | 28.4974 | 118.9997 | 13.58492 | – |
| 2026 May 02 17:57 | 2026 Apr 30 08:03:19 | 65.8156 | 0.01005 | 6.6054 | 28.4974 | 118.9997 | 13.58492 | – |
| 2026 May 01 17:56 | 2026 Apr 30 08:03:19 | 65.8156 | 0.01005 | 6.6054 | 28.4974 | 118.9997 | 13.58492 | – |
| 2026 Apr 30 17:56 | 2026 Apr 30 08:03:19 | 65.8156 | 0.01005 | 6.6054 | 28.4974 | 118.9997 | 13.58492 | – |
| 2026 Apr 29 17:57 | 2026 Apr 24 10:43:50 | 65.8148 | 0.01000 | 7.5491 | 31.4145 | 118.9997 | 13.58492 | – |
| 2026 Apr 28 17:56 | 2026 Apr 24 10:43:50 | 65.8148 | 0.01000 | 7.5491 | 31.4145 | 118.9997 | 13.58492 | – |
| 2026 Apr 27 17:58 | 2026 Apr 24 10:43:50 | 65.8148 | 0.01000 | 7.5491 | 31.4145 | 118.9997 | 13.58492 | – |
| 2026 Apr 26 17:58 | 2026 Apr 24 10:43:50 | 65.8148 | 0.01000 | 7.5491 | 31.4145 | 118.9997 | 13.58492 | – |
| 2026 Apr 25 17:58 | 2026 Apr 24 10:43:50 | 65.8148 | 0.01000 | 7.5491 | 31.4145 | 118.9997 | 13.58492 | – |
| 2026 Apr 24 17:59 | 2026 Apr 24 10:43:50 | 65.8148 | 0.01000 | 7.5491 | 31.4145 | 118.9997 | 13.58492 | – |
| 2026 Apr 23 17:57 | 2026 Apr 19 04:55:35 | 65.8150 | 0.00996 | 8.3892 | 34.0327 | 118.9997 | 13.58492 | – |
| 2026 Apr 22 17:57 | 2026 Apr 19 04:55:35 | 65.8150 | 0.00996 | 8.3892 | 34.0327 | 118.9997 | 13.58492 | – |
| 2026 Apr 21 17:57 | 2026 Apr 19 04:55:35 | 65.8150 | 0.00996 | 8.3892 | 34.0327 | 118.9997 | 13.58492 | – |
| 2026 Apr 20 17:57 | 2026 Apr 19 04:55:35 | 65.8150 | 0.00996 | 8.3892 | 34.0327 | 118.9997 | 13.58492 | – |
| 2026 Apr 19 17:58 | 2026 Apr 19 04:55:35 | 65.8150 | 0.00996 | 8.3892 | 34.0327 | 118.9997 | 13.58492 | – |
| 2026 Apr 18 17:56 | 2026 Apr 13 05:45:18 | 65.8153 | 0.00992 | 9.3452 | 37.0571 | 118.9997 | 13.58492 | – |
| 2026 Apr 16 17:57 | 2026 Apr 13 05:45:18 | 65.8153 | 0.00992 | 9.3452 | 37.0571 | 118.9997 | 13.58492 | – |
| 2026 Apr 14 17:57 | 2026 Apr 13 05:45:18 | 65.8153 | 0.00992 | 9.3452 | 37.0571 | 118.9997 | 13.58492 | – |
| 2026 Apr 13 17:57 | 2026 Apr 13 05:45:18 | 65.8153 | 0.00992 | 9.3452 | 37.0571 | 118.9997 | 13.58492 | – |
| 2026 Apr 12 17:57 | 2026 Apr 08 11:11:38 | 65.8162 | 0.00989 | 10.1101 | 39.5077 | 118.9997 | 13.58492 | – |
| 2026 Apr 11 17:57 | 2026 Apr 08 11:11:38 | 65.8162 | 0.00989 | 10.1101 | 39.5077 | 118.9997 | 13.58492 | – |
| 2026 Apr 10 17:58 | 2026 Apr 08 11:11:38 | 65.8162 | 0.00989 | 10.1101 | 39.5077 | 118.9997 | 13.58492 | – |
| 2026 Apr 09 18:01 | 2026 Apr 08 11:11:38 | 65.8162 | 0.00989 | 10.1101 | 39.5077 | 118.9997 | 13.58492 | – |
| 2026 Apr 08 17:57 | 2026 Apr 08 11:11:38 | 65.8162 | 0.00989 | 10.1101 | 39.5077 | 118.9997 | 13.58492 | – |
| 2026 Apr 07 17:57 | 2026 Apr 02 04:32:22 | 65.8169 | 0.00986 | 11.1160 | 42.7262 | 118.9997 | 13.58492 | – |
| 2026 Apr 06 17:57 | 2026 Apr 02 04:32:22 | 65.8169 | 0.00986 | 11.1160 | 42.7262 | 118.9997 | 13.58492 | – |